Time;durP1;ratioP1;P1;durP2;ratioP2;P2;SDS_P1;SDS_P2;PMS_P1;PMS_P2;Temp;Humidity;BMP_temperature;BMP_pressure;BME280_temperature;BME280_humidity;BME280_pressure;Samples;Min_cycle;Max_cycle;Signal;HPM_P1;HPM_P2
2021/08/23 00:02:11;;;;;;;36.58;26.92;;;17.10;99.90;;;;;;5083783;28;20020;-80
2021/08/23 00:04:37;;;;;;;35.00;25.90;;;17.00;99.90;;;;;;5088747;28;20453;-80
2021/08/23 00:07:04;;;;;;;38.88;27.48;;;17.10;99.90;;;;;;5092926;28;20451;-79
2021/08/23 00:09:30;;;;;;;34.65;26.98;;;17.00;99.90;;;;;;5085177;28;20027;-79
2021/08/23 00:11:56;;;;;;;34.65;27.70;;;17.00;99.90;;;;;;5082907;28;20024;-79
2021/08/23 00:14:22;;;;;;;38.72;27.35;;;17.00;99.90;;;;;;5083326;28;20017;-80
2021/08/23 00:16:47;;;;;;;39.42;28.17;;;17.00;99.90;;;;;;5082447;28;20110;-80
2021/08/23 00:19:13;;;;;;;40.25;28.42;;;17.00;99.90;;;;;;5075808;28;20029;-79
2021/08/23 00:21:44;;;;;;;35.80;26.92;;;17.00;99.90;;;;;;5087953;28;20470;-80
2021/08/23 00:24:23;;;;;;;36.75;26.90;;;17.00;99.90;;;;;;5072902;28;20090;-80
2021/08/23 00:26:58;;;;;;;37.47;28.95;;;16.90;99.90;;;;;;5072460;28;20115;-80
2021/08/23 00:29:25;;;;;;;38.10;27.70;;;16.90;99.90;;;;;;5076420;28;20028;-80
2021/08/23 00:31:51;;;;;;;38.72;27.45;;;16.90;99.90;;;;;;5076209;28;20511;-80
2021/08/23 00:34:17;;;;;;;37.78;28.25;;;16.90;99.90;;;;;;5077025;28;20028;-81
2021/08/23 00:36:43;;;;;;;37.83;27.35;;;17.00;99.90;;;;;;5092019;28;20028;-81
2021/08/23 00:39:10;;;;;;;40.97;28.85;;;17.00;99.90;;;;;;5077013;28;20068;-80
2021/08/23 00:41:37;;;;;;;42.13;28.67;;;17.00;99.90;;;;;;5077874;28;20028;-81
2021/08/23 00:44:04;;;;;;;36.33;26.92;;;17.00;99.90;;;;;;5086659;28;20597;-80
2021/08/23 00:46:30;;;;;;;38.75;27.35;;;17.00;99.90;;;;;;5081899;28;20025;-80
2021/08/23 00:48:55;;;;;;;34.88;27.33;;;17.00;99.90;;;;;;5076548;28;20020;-80
2021/08/23 00:51:21;;;;;;;38.67;26.20;;;17.00;99.90;;;;;;5076558;28;20056;-81
2021/08/23 00:53:48;;;;;;;33.92;25.52;;;17.00;99.90;;;;;;5076472;28;20035;-80
2021/08/23 00:56:15;;;;;;;34.72;25.40;;;17.10;99.90;;;;;;5093597;28;20024;-80
2021/08/23 00:58:41;;;;;;;29.88;25.00;;;17.10;99.90;;;;;;5098670;28;20091;-80
2021/08/23 01:01:22;;;;;;;32.13;25.70;;;17.00;99.90;;;;;;5098916;28;20516;-79
2021/08/23 01:03:59;;;;;;;43.83;25.40;;;17.00;99.90;;;;;;5097954;28;20487;-79
2021/08/23 01:06:26;;;;;;;33.70;25.75;;;17.10;99.90;;;;;;5098426;28;20058;-80
2021/08/23 01:08:57;;;;;;;38.80;26.55;;;17.10;99.90;;;;;;5090137;28;20468;-79
2021/08/23 01:11:26;;;;;;;31.92;24.60;;;17.10;99.90;;;;;;5088443;28;20025;-80
2021/08/23 01:13:51;;;;;;;31.45;24.23;;;17.10;99.90;;;;;;5091538;28;20031;-79
2021/08/23 01:16:19;;;;;;;32.97;25.42;;;17.90;99.90;;;;;;5087217;28;20028;-79
2021/08/23 01:18:45;;;;;;;35.97;25.40;;;17.10;99.90;;;;;;5085234;28;20100;-79
2021/08/23 01:21:18;;;;;;;36.42;24.58;;;17.10;99.90;;;;;;5089590;28;20040;-79
2021/08/23 01:23:46;;;;;;;28.88;23.45;;;17.10;99.90;;;;;;5088290;28;20472;-79
2021/08/23 01:26:15;;;;;;;31.05;23.05;;;17.10;99.90;;;;;;5103586;28;20073;-80
2021/08/23 01:29:03;;;;;;;30.00;23.52;;;17.10;99.90;;;;;;5094594;28;20021;-81
2021/08/23 01:31:37;;;;;;;27.75;21.88;;;17.10;99.90;;;;;;5095733;28;20047;-79
2021/08/23 01:34:04;;;;;;;26.48;21.85;;;17.10;99.90;;;;;;5090952;28;20028;-80
2021/08/23 01:36:30;;;;;;;30.55;23.70;;;17.10;99.90;;;;;;5101705;28;20017;-81
2021/08/23 01:38:57;;;;;;;34.08;23.83;;;17.10;99.90;;;;;;5104707;28;20522;-78
2021/08/23 01:41:23;;;;;;;29.30;22.92;;;17.10;99.90;;;;;;5098986;28;20064;-79
2021/08/23 01:43:49;;;;;;;33.17;22.83;;;17.10;99.90;;;;;;5088450;28;20032;-80
2021/08/23 01:46:15;;;;;;;28.05;22.13;;;17.10;99.90;;;;;;5084641;28;20074;-79
2021/08/23 01:48:40;;;;;;;28.98;22.35;;;17.10;99.90;;;;;;5078346;28;20443;-79
2021/08/23 01:51:06;;;;;;;27.35;22.77;;;17.10;99.90;;;;;;5080687;28;20040;-79
2021/08/23 01:53:31;;;;;;;25.80;21.90;;;17.00;99.90;;;;;;5086019;28;20020;-81
2021/08/23 01:55:57;;;;;;;25.05;21.75;;;17.10;99.90;;;;;;5084804;28;20028;-80
2021/08/23 01:58:22;;;;;;;28.33;22.33;;;17.10;99.90;;;;;;5093550;28;20017;-82
2021/08/23 02:00:48;;;;;;;24.27;21.40;;;17.10;99.90;;;;;;5091664;28;20051;-78
2021/08/23 02:03:14;;;;;;;30.33;20.88;;;17.10;99.90;;;;;;5083046;28;20016;-80
2021/08/23 02:05:39;;;;;;;27.58;21.75;;;17.10;99.90;;;;;;5087956;28;20031;-80
2021/08/23 02:08:05;;;;;;;25.92;20.58;;;17.10;99.90;;;;;;5092295;28;20031;-80
2021/08/23 02:10:31;;;;;;;23.45;19.35;;;17.10;99.90;;;;;;5096123;28;20088;-80
2021/08/23 02:12:57;;;;;;;25.05;21.65;;;17.10;99.90;;;;;;5102100;28;20016;-80
2021/08/23 02:15:22;;;;;;;26.63;20.73;;;17.10;99.90;;;;;;5086262;28;20029;-80
2021/08/23 02:17:48;;;;;;;33.13;21.05;;;17.20;99.90;;;;;;5085849;28;20085;-80
2021/08/23 02:20:14;;;;;;;31.83;20.95;;;17.10;99.90;;;;;;5104285;28;20058;-80
2021/08/23 02:22:43;;;;;;;32.22;20.70;;;17.10;99.90;;;;;;5098635;28;20029;-79
2021/08/23 02:25:09;;;;;;;23.48;19.88;;;17.10;99.90;;;;;;5084507;28;20385;-79
2021/08/23 02:27:35;;;;;;;27.60;20.05;;;17.00;99.90;;;;;;5087399;28;20016;-79
2021/08/23 02:30:00;;;;;;;26.50;20.67;;;17.00;99.90;;;;;;5092105;28;20672;-79
2021/08/23 02:32:26;;;;;;;23.45;19.35;;;17.00;99.90;;;;;;5086371;28;20031;-79
2021/08/23 02:34:52;;;;;;;25.30;19.33;;;17.00;99.90;;;;;;5103403;28;20483;-79
2021/08/23 02:37:17;;;;;;;24.02;19.10;;;17.00;99.90;;;;;;5084017;28;20016;-79
2021/08/23 02:39:46;;;;;;;21.10;18.42;;;17.00;99.90;;;;;;5079717;28;20036;-79
2021/08/23 02:42:11;;;;;;;26.67;19.73;;;16.90;99.90;;;;;;5095989;28;20020;-80
2021/08/23 02:44:38;;;;;;;23.20;19.02;;;16.90;99.90;;;;;;5092085;28;20024;-79
2021/08/23 02:47:04;;;;;;;25.45;19.98;;;16.90;99.90;;;;;;5078944;28;20433;-79
2021/08/23 02:49:29;;;;;;;25.67;18.73;;;16.90;99.90;;;;;;5076256;28;20028;-79
2021/08/23 02:51:55;;;;;;;26.48;20.52;;;16.90;99.90;;;;;;5075284;28;20025;-78
2021/08/23 02:54:21;;;;;;;31.23;21.38;;;16.90;99.90;;;;;;5076123;28;20032;-80
2021/08/23 02:56:46;;;;;;;31.20;21.13;;;16.80;99.90;;;;;;5074419;28;20365;-80
2021/08/23 02:59:12;;;;;;;28.13;20.33;;;16.80;99.90;;;;;;5089270;28;20024;-79
2021/08/23 03:01:38;;;;;;;28.30;19.90;;;16.80;99.90;;;;;;5085411;28;20023;-79
2021/08/23 03:04:04;;;;;;;27.25;18.42;;;16.80;99.90;;;;;;5080677;28;20464;-79
2021/08/23 03:06:30;;;;;;;26.88;20.23;;;16.70;99.90;;;;;;5073562;28;20099;-80
2021/08/23 03:08:55;;;;;;;27.70;18.70;;;16.70;99.90;;;;;;5075397;28;20052;-80
2021/08/23 03:11:21;;;;;;;22.95;18.02;;;16.80;99.90;;;;;;5073522;28;20066;-79
2021/08/23 03:13:47;;;;;;;23.58;17.10;;;16.70;99.90;;;;;;5074116;28;20028;-79
2021/08/23 03:16:13;;;;;;;20.02;16.60;;;16.70;99.90;;;;;;5072652;28;20538;-79
2021/08/23 03:18:41;;;;;;;22.02;17.00;;;16.70;99.90;;;;;;5072737;28;20020;-81
2021/08/23 03:21:07;;;;;;;19.77;16.25;;;16.60;99.90;;;;;;5073765;28;20048;-78
2021/08/23 03:23:32;;;;;;;20.70;16.00;;;16.60;99.90;;;;;;5087079;28;20024;-78
2021/08/23 03:26:01;;;;;;;22.92;16.20;;;16.60;99.90;;;;;;5073227;28;20028;-79
2021/08/23 03:28:27;;;;;;;19.35;15.20;;;16.60;99.90;;;;;;5073770;28;20503;-80
2021/08/23 03:30:52;;;;;;;20.75;15.65;;;16.60;99.90;;;;;;5072717;28;20108;-79
2021/08/23 03:33:18;;;;;;;19.52;15.63;;;16.50;99.90;;;;;;5071690;28;20032;-79
2021/08/23 03:35:44;;;;;;;14.90;13.40;;;16.50;99.90;;;;;;5073590;28;20036;-80
2021/08/23 03:38:12;;;;;;;16.65;13.05;;;16.50;99.90;;;;;;5084743;28;20058;-80
2021/08/23 03:40:38;;;;;;;16.60;13.65;;;16.60;99.90;;;;;;5080622;28;20033;-80
2021/08/23 03:43:04;;;;;;;18.67;13.40;;;16.50;99.90;;;;;;5093547;28;20146;-80
2021/08/23 03:45:29;;;;;;;15.23;13.63;;;16.50;99.90;;;;;;5074806;28;20024;-80
2021/08/23 03:47:55;;;;;;;22.38;14.18;;;16.40;99.90;;;;;;5078538;28;20028;-80
2021/08/23 03:50:21;;;;;;;15.80;14.18;;;16.40;99.90;;;;;;5080267;28;20107;-80
2021/08/23 03:52:47;;;;;;;20.95;15.55;;;16.50;99.90;;;;;;5088401;28;20024;-80
2021/08/23 03:55:13;;;;;;;17.63;13.90;;;16.40;99.90;;;;;;5083464;28;20068;-80
2021/08/23 03:57:38;;;;;;;18.42;14.95;;;16.40;99.90;;;;;;5075379;28;20078;-80
2021/08/23 04:00:06;;;;;;;18.33;14.68;;;16.40;99.90;;;;;;5072003;28;20170;-80
2021/08/23 04:02:32;;;;;;;17.83;14.10;;;16.50;99.90;;;;;;5070525;28;20074;-80
2021/08/23 04:04:58;;;;;;;20.63;16.48;;;16.50;99.90;;;;;;5071174;28;20100;-80
2021/08/23 04:07:23;;;;;;;20.13;13.88;;;16.70;99.90;;;;;;5071430;28;20498;-81
2021/08/23 04:09:49;;;;;;;19.58;14.65;;;16.40;99.90;;;;;;5070250;28;20040;-80
2021/08/23 04:12:14;;;;;;;16.83;14.73;;;16.50;99.90;;;;;;5070802;28;20021;-79
2021/08/23 04:14:40;;;;;;;19.65;14.77;;;16.50;99.90;;;;;;5073979;28;20062;-79
2021/08/23 04:17:05;;;;;;;17.88;14.57;;;16.40;99.90;;;;;;5086461;28;20013;-79
2021/08/23 04:19:31;;;;;;;17.23;14.60;;;16.50;99.90;;;;;;5071551;28;20064;-79
2021/08/23 04:21:57;;;;;;;20.60;14.77;;;16.50;99.90;;;;;;5073661;28;20017;-80
2021/08/23 04:24:23;;;;;;;19.70;14.60;;;16.40;99.90;;;;;;5092064;28;20090;-79
2021/08/23 04:26:48;;;;;;;15.70;13.98;;;16.40;99.90;;;;;;5090610;28;20031;-80
2021/08/23 04:29:15;;;;;;;19.92;15.82;;;16.40;99.90;;;;;;5070938;28;20017;-78
2021/08/23 04:31:42;;;;;;;19.33;14.32;;;16.40;99.90;;;;;;5071044;28;20063;-79
2021/08/23 04:34:08;;;;;;;15.27;13.43;;;16.40;99.90;;;;;;5071505;28;20023;-78
2021/08/23 04:36:33;;;;;;;20.02;13.13;;;16.40;99.90;;;;;;5071090;28;20056;-79
2021/08/23 04:38:59;;;;;;;16.27;12.77;;;16.40;99.90;;;;;;5071657;28;20071;-78
2021/08/23 04:41:24;;;;;;;15.48;11.88;;;16.40;99.90;;;;;;5071511;28;20472;-79
2021/08/23 04:43:50;;;;;;;13.98;12.20;;;16.40;99.90;;;;;;5071040;28;20048;-78
2021/08/23 04:46:17;;;;;;;12.95;11.75;;;16.40;99.90;;;;;;5091601;28;20523;-78
2021/08/23 04:48:43;;;;;;;12.88;10.55;;;16.50;99.90;;;;;;5078078;28;20031;-80
2021/08/23 04:51:08;;;;;;;12.80;10.00;;;16.50;99.90;;;;;;5070518;28;20419;-80
2021/08/23 04:53:34;;;;;;;12.23;9.82;;;16.50;99.90;;;;;;5070668;28;20021;-80
2021/08/23 04:56:00;;;;;;;10.75;8.80;;;16.40;99.90;;;;;;5085082;28;20428;-79
2021/08/23 04:58:25;;;;;;;16.90;9.32;;;16.40;99.90;;;;;;5079530;28;20116;-79
2021/08/23 05:00:51;;;;;;;13.15;7.93;;;16.40;99.90;;;;;;5076591;28;20068;-79
2021/08/23 05:03:16;;;;;;;12.55;8.43;;;16.40;99.90;;;;;;5084893;28;20051;-77
2021/08/23 05:05:42;;;;;;;12.63;7.72;;;16.80;99.90;;;;;;5070549;28;20555;-78
2021/08/23 05:08:08;;;;;;;13.32;7.43;;;16.60;99.90;;;;;;5071284;28;20537;-79
2021/08/23 05:10:34;;;;;;;8.95;6.93;;;16.50;99.90;;;;;;5070994;28;20554;-79
2021/08/23 05:13:00;;;;;;;9.27;7.15;;;16.50;99.90;;;;;;5070277;28;20120;-78
2021/08/23 05:15:25;;;;;;;13.73;7.05;;;16.50;99.90;;;;;;5072568;28;20070;-78
2021/08/23 05:17:52;;;;;;;10.93;6.75;;;16.50;99.90;;;;;;5074606;28;20056;-80
2021/08/23 05:20:19;;;;;;;8.20;6.63;;;16.50;99.90;;;;;;5074205;28;20113;-79
2021/08/23 05:22:45;;;;;;;6.95;6.32;;;16.60;99.90;;;;;;5074628;28;20386;-77
2021/08/23 05:25:11;;;;;;;8.80;5.75;;;16.60;99.90;;;;;;5078268;28;20016;-78
2021/08/23 05:27:36;;;;;;;9.43;6.60;;;16.60;99.90;;;;;;5078729;28;20107;-78
2021/08/23 05:30:03;;;;;;;5.82;5.18;;;16.60;99.90;;;;;;5076252;28;20587;-79
2021/08/23 05:32:29;;;;;;;10.15;5.70;;;16.70;99.90;;;;;;5076147;28;20357;-80
2021/08/23 05:34:55;;;;;;;10.13;5.45;;;16.70;99.90;;;;;;5077261;28;20016;-78
2021/08/23 05:37:20;;;;;;;11.15;5.68;;;16.70;99.90;;;;;;5078585;28;20024;-78
2021/08/23 05:39:46;;;;;;;8.35;5.32;;;16.70;99.90;;;;;;5081408;28;20327;-79
2021/08/23 05:42:13;;;;;;;10.73;5.55;;;16.70;99.90;;;;;;5079636;28;20042;-79
2021/08/23 05:44:42;;;;;;;8.43;5.68;;;16.70;99.90;;;;;;5076982;28;20092;-78
2021/08/23 05:47:08;;;;;;;9.52;5.40;;;16.80;99.90;;;;;;5082210;28;20029;-79
2021/08/23 05:49:34;;;;;;;14.93;5.57;;;16.80;99.90;;;;;;5074881;28;20158;-79
2021/08/23 05:52:00;;;;;;;10.45;5.88;;;16.80;99.90;;;;;;5077518;28;21353;-79
2021/08/23 05:54:27;;;;;;;7.93;5.40;;;16.90;99.90;;;;;;5077523;28;20106;-79
2021/08/23 05:56:57;;;;;;;9.25;4.82;;;16.80;99.90;;;;;;5078432;28;20061;-79
2021/08/23 05:59:24;;;;;;;9.38;4.75;;;16.90;99.90;;;;;;5076094;28;20036;-78
2021/08/23 06:01:53;;;;;;;10.50;5.32;;;16.90;99.90;;;;;;5075105;28;20120;-79
2021/08/23 06:04:20;;;;;;;7.20;3.97;;;16.90;99.90;;;;;;5075411;28;20498;-78
2021/08/23 06:06:46;;;;;;;10.23;4.57;;;17.00;99.90;;;;;;5080744;28;20078;-79
2021/08/23 06:09:12;;;;;;;10.35;4.00;;;17.10;99.90;;;;;;5078340;28;20476;-79
2021/08/23 06:11:37;;;;;;;11.48;4.22;;;17.10;99.90;;;;;;5077575;28;20119;-79
2021/08/23 06:14:03;;;;;;;5.05;4.03;;;17.10;99.90;;;;;;5083912;28;20027;-79
2021/08/23 06:16:28;;;;;;;6.90;3.60;;;17.20;99.90;;;;;;5076325;28;20024;-81
2021/08/23 06:18:54;;;;;;;4.57;3.85;;;17.30;99.90;;;;;;5087067;28;20032;-80
2021/08/23 06:21:19;;;;;;;7.00;3.90;;;17.30;99.90;;;;;;5083629;28;20574;-76
2021/08/23 06:23:45;;;;;;;7.68;5.15;;;16.80;99.90;;;;;;5088258;28;20517;-76
2021/08/23 06:26:10;;;;;;;4.80;3.92;;;17.40;99.90;;;;;;5089557;28;20463;-76
2021/08/23 06:28:36;;;;;;;10.25;4.55;;;17.40;99.90;;;;;;5083821;28;20065;-76
2021/08/23 06:31:01;;;;;;;7.70;3.78;;;17.40;99.90;;;;;;5080615;28;20020;-75
2021/08/23 06:33:27;;;;;;;7.38;3.10;;;17.40;99.90;;;;;;5080718;28;20028;-75
2021/08/23 06:35:53;;;;;;;7.70;3.80;;;17.50;99.90;;;;;;5086741;28;20485;-76
2021/08/23 06:38:18;;;;;;;5.28;3.50;;;17.50;99.90;;;;;;5072782;28;20534;-76
2021/08/23 06:40:44;;;;;;;4.25;3.35;;;17.60;99.90;;;;;;5076159;28;20039;-77
2021/08/23 06:43:09;;;;;;;9.10;3.33;;;17.70;99.90;;;;;;5093531;28;20016;-76
2021/08/23 06:45:35;;;;;;;10.82;4.00;;;17.70;99.90;;;;;;5082003;28;20020;-76
2021/08/23 06:48:00;;;;;;;12.98;3.88;;;17.80;99.90;;;;;;5083523;28;20070;-76
2021/08/23 06:50:26;;;;;;;7.53;3.22;;;17.80;99.90;;;;;;5079881;28;20027;-75
2021/08/23 06:52:52;;;;;;;18.17;5.75;;;17.90;99.90;;;;;;5086661;28;20052;-74
2021/08/23 06:55:17;;;;;;;4.13;3.70;;;18.00;99.90;;;;;;5072524;28;20016;-74
2021/08/23 06:57:43;;;;;;;10.15;3.20;;;18.00;99.90;;;;;;5074445;28;20077;-74
2021/08/23 07:00:09;;;;;;;11.43;3.10;;;18.00;99.90;;;;;;5082813;28;20047;-75
2021/08/23 07:02:35;;;;;;;7.13;3.67;;;18.10;99.90;;;;;;5093001;28;20069;-74
2021/08/23 07:05:00;;;;;;;7.60;3.90;;;18.10;99.90;;;;;;5086559;28;20036;-74
2021/08/23 07:07:28;;;;;;;7.28;3.75;;;18.20;99.90;;;;;;5084234;28;20024;-74
2021/08/23 07:09:54;;;;;;;11.57;3.38;;;18.10;99.90;;;;;;5083595;28;20032;-74
2021/08/23 07:12:19;;;;;;;4.38;3.17;;;18.20;99.90;;;;;;5083615;28;20024;-75
2021/08/23 07:14:45;;;;;;;6.03;3.58;;;18.30;99.90;;;;;;5092541;28;20077;-75
2021/08/23 07:17:10;;;;;;;4.75;3.28;;;18.30;99.90;;;;;;5087092;28;20435;-74
2021/08/23 07:19:36;;;;;;;6.85;2.90;;;18.30;99.90;;;;;;5078560;28;20383;-74
2021/08/23 07:22:02;;;;;;;8.15;2.90;;;18.30;99.90;;;;;;5075415;28;20540;-76
2021/08/23 07:24:28;;;;;;;6.60;3.13;;;18.30;99.90;;;;;;5091839;28;20024;-77
2021/08/23 07:26:53;;;;;;;5.47;2.97;;;18.30;99.90;;;;;;5091528;28;20047;-76
2021/08/23 07:29:20;;;;;;;9.13;2.90;;;18.30;99.90;;;;;;5092365;28;20110;-77
2021/08/23 07:31:46;;;;;;;6.53;3.22;;;18.40;99.90;;;;;;5091611;28;20024;-76
2021/08/23 07:34:14;;;;;;;6.28;3.22;;;18.40;99.90;;;;;;5092182;28;20024;-76
2021/08/23 07:36:40;;;;;;;4.25;2.80;;;18.50;99.90;;;;;;5090361;28;20020;-77
2021/08/23 07:39:05;;;;;;;4.88;2.50;;;18.50;99.90;;;;;;5086906;28;20039;-77
2021/08/23 07:41:31;;;;;;;4.07;2.47;;;18.60;99.90;;;;;;5091996;28;20085;-75
2021/08/23 07:43:56;;;;;;;4.45;2.33;;;18.60;99.90;;;;;;5092218;28;20016;-76
2021/08/23 07:46:22;;;;;;;3.72;2.75;;;18.60;99.90;;;;;;5089041;28;20031;-78
2021/08/23 07:48:47;;;;;;;7.07;3.08;;;18.60;99.90;;;;;;5091924;28;20024;-77
2021/08/23 07:51:13;;;;;;;2.63;2.42;;;18.60;99.90;;;;;;5079115;28;20028;-77
2021/08/23 07:53:39;;;;;;;8.20;2.92;;;18.70;99.90;;;;;;5074533;28;20030;-79
2021/08/23 07:56:05;;;;;;;4.78;2.50;;;18.70;99.90;;;;;;5089864;28;20048;-78
2021/08/23 07:58:31;;;;;;;5.18;2.30;;;18.70;99.90;;;;;;5091874;28;20027;-78
2021/08/23 08:00:56;;;;;;;9.02;2.75;;;18.60;99.90;;;;;;5091321;28;20074;-78
2021/08/23 08:03:22;;;;;;;4.03;1.85;;;18.70;99.90;;;;;;5092220;28;20043;-79
2021/08/23 08:05:47;;;;;;;3.78;2.40;;;18.80;99.90;;;;;;5092093;28;20502;-79
2021/08/23 08:08:18;;;;;;;10.20;2.78;;;18.80;99.90;;;;;;5091517;28;20488;-79
2021/08/23 08:10:44;;;;;;;5.28;2.47;;;18.80;99.90;;;;;;5093115;28;20066;-78
2021/08/23 08:13:09;;;;;;;9.18;2.45;;;18.90;99.90;;;;;;5091704;28;20012;-79
2021/08/23 08:15:35;;;;;;;3.53;2.45;;;18.90;99.90;;;;;;5091052;28;20152;-78
2021/08/23 08:18:01;;;;;;;4.35;2.30;;;18.90;99.90;;;;;;5079602;28;20112;-77
2021/08/23 08:20:26;;;;;;;7.40;3.00;;;19.00;99.90;;;;;;5071538;28;20036;-79
2021/08/23 08:22:52;;;;;;;6.63;2.97;;;19.00;99.90;;;;;;5071016;28;20032;-78
2021/08/23 08:25:18;;;;;;;5.80;2.38;;;19.10;99.90;;;;;;5072025;28;20025;-78
2021/08/23 08:27:43;;;;;;;4.80;2.58;;;19.10;99.90;;;;;;5079931;28;20034;-78
2021/08/23 08:30:10;;;;;;;10.35;2.35;;;19.10;99.90;;;;;;5076890;28;20028;-79
2021/08/23 08:32:36;;;;;;;7.63;2.10;;;19.10;99.90;;;;;;5077739;28;20095;-78
2021/08/23 08:35:05;;;;;;;4.30;2.20;;;19.20;99.90;;;;;;5078807;28;20484;-79
2021/08/23 08:37:30;;;;;;;7.10;2.50;;;19.10;99.90;;;;;;5076110;28;20028;-79
2021/08/23 08:39:56;;;;;;;3.35;2.33;;;19.30;99.90;;;;;;5080979;28;20037;-80
2021/08/23 08:42:21;;;;;;;3.50;1.98;;;19.30;99.90;;;;;;5085160;28;20028;-79
2021/08/23 08:44:50;;;;;;;3.95;2.60;;;19.30;99.90;;;;;;5071757;28;20029;-78
2021/08/23 08:47:17;;;;;;;5.65;2.45;;;19.30;99.90;;;;;;5085754;28;20047;-80
2021/08/23 08:49:43;;;;;;;6.40;2.40;;;19.30;99.90;;;;;;5079343;28;20482;-80
2021/08/23 08:52:10;;;;;;;3.67;2.60;;;19.30;99.90;;;;;;5076068;28;20028;-80
2021/08/23 08:54:38;;;;;;;3.40;2.08;;;19.40;99.90;;;;;;5087931;28;20028;-80
2021/08/23 08:57:04;;;;;;;3.67;2.20;;;19.50;99.90;;;;;;5091917;28;20031;-80
2021/08/23 08:59:30;;;;;;;7.70;2.13;;;19.60;99.90;;;;;;5081934;28;20036;-80
2021/08/23 09:01:56;;;;;;;5.70;2.17;;;19.60;99.90;;;;;;5095263;28;20103;-78
2021/08/23 09:04:31;;;;;;;4.43;2.13;;;19.50;99.90;;;;;;5082637;28;20403;-77
2021/08/23 09:06:58;;;;;;;2.13;1.83;;;19.50;99.90;;;;;;5095532;28;20107;-78
2021/08/23 09:09:25;;;;;;;3.08;1.80;;;19.40;99.90;;;;;;5094043;28;20029;-79
2021/08/23 09:12:05;;;;;;;3.22;1.95;;;19.50;99.90;;;;;;5094417;28;20229;-78
2021/08/23 09:14:31;;;;;;;;;;;19.40;99.90;;;;;;5095427;28;20408;-78
2021/08/23 09:17:05;;;;;;;4.95;2.67;;;19.40;99.90;;;;;;5091419;28;19912;-79
2021/08/23 09:19:34;;;;;;;6.57;3.30;;;19.40;99.90;;;;;;5084793;28;20028;-79
2021/08/23 09:22:05;;;;;;;4.95;2.17;;;19.50;99.90;;;;;;5081027;28;20032;-78
2021/08/23 09:24:36;;;;;;;4.43;2.47;;;19.60;99.90;;;;;;5085023;28;20296;-78
2021/08/23 09:27:08;;;;;;;2.92;1.75;;;19.60;99.90;;;;;;5077073;28;20031;-77
2021/08/23 09:29:59;;;;;;;5.05;2.33;;;19.60;99.90;;;;;;5085491;28;20048;-78
2021/08/23 09:32:49;;;;;;;2.70;2.03;;;19.60;99.90;;;;;;5074259;28;20024;-79
2021/08/23 09:35:33;;;;;;;5.00;2.00;;;19.50;99.90;;;;;;5088953;28;20119;-77
2021/08/23 09:37:59;;;;;;;6.28;2.17;;;19.60;99.90;;;;;;5086288;28;20553;-79
2021/08/23 09:40:31;;;;;;;3.33;2.10;;;19.60;99.90;;;;;;5088105;28;20039;-78
2021/08/23 09:43:13;;;;;;;3.97;2.17;;;19.60;99.90;;;;;;5074388;28;20028;-79
2021/08/23 09:45:44;;;;;;;9.57;2.42;;;19.60;99.90;;;;;;5073358;28;20112;-77
2021/08/23 09:48:10;;;;;;;6.88;1.80;;;19.60;99.90;;;;;;5082877;28;20031;-79
2021/08/23 09:50:49;;;;;;;4.90;2.20;;;19.60;99.90;;;;;;5079591;28;20029;-77
2021/08/23 09:53:22;;;;;;;4.95;2.08;;;19.80;99.90;;;;;;5073767;28;20032;-77
2021/08/23 09:55:51;;;;;;;8.38;3.22;;;20.00;99.90;;;;;;5074121;28;20029;-76
2021/08/23 09:58:17;;;;;;;4.97;2.20;;;19.90;99.90;;;;;;5074046;28;20392;-77
2021/08/23 10:00:44;;;;;;;5.63;2.10;;;20.00;99.90;;;;;;5085808;28;20032;-77
2021/08/23 10:03:15;;;;;;;2.85;1.92;;;20.10;99.90;;;;;;5094898;28;20027;-77
2021/08/23 10:05:45;;;;;;;2.35;2.15;;;20.00;99.90;;;;;;5081504;28;20029;-78
2021/08/23 10:08:31;;;;;;;3.03;1.88;;;19.90;99.90;;;;;;5084923;28;20345;-78
2021/08/23 10:10:57;;;;;;;3.92;2.65;;;20.00;99.90;;;;;;5076069;28;20468;-79
2021/08/23 10:13:23;;;;;;;3.05;1.80;;;20.10;99.90;;;;;;5092408;28;20024;-77
2021/08/23 10:15:49;;;;;;;2.22;1.92;;;20.20;99.90;;;;;;5078228;28;20032;-77
2021/08/23 10:18:16;;;;;;;3.80;2.13;;;20.20;99.90;;;;;;5090783;28;20094;-79
2021/08/23 10:20:41;;;;;;;2.85;2.00;;;20.40;99.90;;;;;;5082626;28;20035;-79
2021/08/23 10:23:09;;;;;;;4.70;1.90;;;20.50;99.90;;;;;;5081881;28;20111;-77
2021/08/23 10:25:35;;;;;;;6.35;2.25;;;20.60;99.90;;;;;;5073369;28;20016;-77
2021/08/23 10:28:13;;;;;;;3.60;2.20;;;20.90;99.90;;;;;;5072882;28;20046;-77
2021/08/23 10:30:39;;;;;;;4.72;2.05;;;20.90;99.90;;;;;;5092004;28;20052;-77
2021/08/23 10:33:14;;;;;;;4.22;2.30;;;20.80;99.90;;;;;;5083798;28;20120;-76
2021/08/23 10:35:54;;;;;;;5.78;2.22;;;20.80;99.90;;;;;;5073216;28;20379;-77
2021/08/23 10:38:23;;;;;;;5.10;2.58;;;20.60;99.90;;;;;;5073637;28;20044;-78
2021/08/23 10:40:53;;;;;;;4.65;2.45;;;20.50;99.90;;;;;;5071686;28;20416;-77
2021/08/23 10:43:23;;;;;;;12.38;2.60;;;20.40;99.90;;;;;;5072849;28;20060;-76
2021/08/23 10:45:49;;;;;;;7.20;2.88;;;20.30;99.90;;;;;;5073056;28;20043;-78
2021/08/23 10:48:20;;;;;;;3.72;2.33;;;20.40;99.90;;;;;;5072949;28;20437;-76
2021/08/23 10:51:04;;;;;;;7.65;2.38;;;20.40;99.90;;;;;;5081486;28;20075;-75
2021/08/23 10:53:35;;;;;;;4.75;2.05;;;20.30;99.90;;;;;;5093098;28;20390;-78
2021/08/23 10:56:21;;;;;;;4.68;2.58;;;20.20;99.90;;;;;;5093909;28;20012;-80
2021/08/23 10:58:48;;;;;;;4.95;2.42;;;20.20;99.90;;;;;;5093265;28;20435;-79
2021/08/23 11:01:22;;;;;;;5.32;1.90;;;20.20;99.90;;;;;;5092964;28;20031;-78
2021/08/23 11:04:04;;;;;;;4.72;2.08;;;20.40;99.90;;;;;;5085900;28;20384;-78
2021/08/23 11:06:32;;;;;;;7.38;1.88;;;20.40;99.90;;;;;;5092335;28;20024;-79
2021/08/23 11:09:12;;;;;;;8.10;2.28;;;20.60;99.90;;;;;;5093110;28;20025;-78
2021/08/23 11:11:39;;;;;;;3.77;1.80;;;20.60;99.90;;;;;;5083031;28;20027;-78
2021/08/23 11:14:21;;;;;;;4.47;2.08;;;20.50;99.90;;;;;;5080351;28;20024;-79
2021/08/23 11:16:51;;;;;;;4.72;1.92;;;20.60;99.90;;;;;;5074907;28;20073;-79
2021/08/23 11:19:20;;;;;;;6.55;2.25;;;20.50;99.90;;;;;;5073292;28;20107;-80
2021/08/23 11:21:54;;;;;;;2.83;1.73;;;20.60;99.90;;;;;;5089006;28;20463;-79
2021/08/23 11:24:19;;;;;;;4.55;2.20;;;20.60;99.90;;;;;;5090317;28;20051;-79
2021/08/23 11:27:00;;;;;;;4.72;2.13;;;20.70;99.90;;;;;;5077174;28;20017;-80
2021/08/23 11:29:53;;;;;;;2.45;1.85;;;20.70;99.90;;;;;;5081442;28;20016;-79
2021/08/23 11:32:24;;;;;;;6.28;2.42;;;20.80;99.90;;;;;;5077410;28;20028;-80
2021/08/23 11:34:52;;;;;;;3.13;2.28;;;20.80;99.90;;;;;;5085514;28;20036;-77
2021/08/23 11:37:22;;;;;;;4.18;2.28;;;20.90;99.90;;;;;;5079778;28;20345;-78
2021/08/23 11:39:47;;;;;;;7.38;2.20;;;20.80;99.90;;;;;;5071871;28;20045;-79
2021/08/23 11:42:13;;;;;;;4.63;2.40;;;21.00;99.90;;;;;;5091155;28;20476;-78
2021/08/23 11:44:46;;;;;;;3.53;2.30;;;21.10;99.90;;;;;;5086223;28;20067;-78
2021/08/23 11:47:12;;;;;;;3.55;2.00;;;21.00;99.90;;;;;;5091523;28;20023;-79
2021/08/23 11:49:38;;;;;;;3.85;1.90;;;21.10;99.90;;;;;;5087226;28;20051;-79
2021/08/23 11:52:31;;;;;;;4.03;2.25;;;21.20;99.90;;;;;;5091403;28;20095;-77
2021/08/23 11:54:57;;;;;;;4.65;2.30;;;21.20;99.90;;;;;;5086517;28;20028;-79
2021/08/23 11:57:25;;;;;;;8.82;3.50;;;21.20;99.90;;;;;;5082871;28;20038;-77
2021/08/23 12:00:02;;;;;;;5.22;2.00;;;21.30;99.90;;;;;;5091601;28;20032;-77
2021/08/23 12:02:30;;;;;;;9.57;3.30;;;21.20;99.90;;;;;;5091464;28;20435;-77
2021/08/23 12:05:15;;;;;;;2.92;2.22;;;21.20;99.90;;;;;;5092210;28;20107;-76
2021/08/23 12:07:44;;;;;;;2.70;2.33;;;21.20;99.90;;;;;;5091164;28;20020;-76
2021/08/23 12:10:27;;;;;;;6.72;2.53;;;21.20;99.90;;;;;;5092787;28;20103;-78
2021/08/23 12:13:09;;;;;;;3.10;1.95;;;21.30;99.90;;;;;;5092411;28;20520;-77
2021/08/23 12:15:52;;;;;;;3.40;2.20;;;21.30;99.90;;;;;;5092049;28;20035;-75
2021/08/23 12:18:19;;;;;;;4.40;2.38;;;21.40;99.90;;;;;;5086498;28;20352;-76
2021/08/23 12:21:22;;;;;;;7.25;2.65;;;21.50;99.90;;;;;;5071390;28;20032;-75
2021/08/23 12:23:51;;;;;;;2.70;2.10;;;21.70;99.90;;;;;;5066409;28;20059;-76
2021/08/23 12:26:31;;;;;;;7.65;2.22;;;21.90;99.90;;;;;;5085716;28;20025;-76
2021/08/23 12:29:04;;;;;;;10.25;2.35;;;21.70;99.90;;;;;;5075292;28;20103;-75
2021/08/23 12:31:33;;;;;;;4.13;2.45;;;21.60;99.90;;;;;;5075519;28;20369;-76
2021/08/23 12:34:10;;;;;;;3.95;2.13;;;21.60;99.90;;;;;;5075714;28;20046;-75
2021/08/23 12:36:35;;;;;;;3.47;2.20;;;21.50;99.90;;;;;;5083122;28;20425;-76
2021/08/23 12:39:01;;;;;;;3.33;2.50;;;21.50;99.90;;;;;;5075458;28;20535;-75
2021/08/23 12:41:26;;;;;;;4.40;2.30;;;21.60;99.90;;;;;;5074736;28;20836;-77
2021/08/23 12:43:54;;;;;;;5.45;2.25;;;21.70;99.90;;;;;;5075640;28;20464;-74